sensor_id;sensor_type;location;lat;lon;timestamp;pressure;altitude;pressure_sealevel;temperature;humidity
41222;BME280;26952;42.884;23.918;2023-02-28T00:00:32;96395.88;;;6.07;100.00
41222;BME280;26952;42.884;23.918;2023-02-28T00:02:58;96412.75;;;6.04;100.00
41222;BME280;26952;42.884;23.918;2023-02-28T00:05:25;96413.53;;;5.95;100.00
41222;BME280;26952;42.884;23.918;2023-02-28T00:07:51;96405.81;;;6.03;100.00
41222;BME280;26952;42.884;23.918;2023-02-28T00:10:19;96419.13;;;6.11;100.00
41222;BME280;26952;42.884;23.918;2023-02-28T00:12:47;96424.19;;;6.24;100.00
41222;BME280;26952;42.884;23.918;2023-02-28T00:15:12;96430.69;;;6.29;100.00
41222;BME280;26952;42.884;23.918;2023-02-28T00:17:38;96430.78;;;6.18;100.00
41222;BME280;26952;42.884;23.918;2023-02-28T00:20:04;96428.28;;;6.17;100.00
41222;BME280;26952;42.884;23.918;2023-02-28T00:22:34;96426.84;;;6.03;100.00
41222;BME280;26952;42.884;23.918;2023-02-28T00:24:59;96428.63;;;5.93;100.00
41222;BME280;26952;42.884;23.918;2023-02-28T00:27:25;96444.56;;;6.01;100.00
41222;BME280;26952;42.884;23.918;2023-02-28T00:29:50;96429.28;;;5.95;100.00
41222;BME280;26952;42.884;23.918;2023-02-28T00:32:16;96435.13;;;5.99;100.00
41222;BME280;26952;42.884;23.918;2023-02-28T00:34:41;96420.19;;;5.99;100.00
41222;BME280;26952;42.884;23.918;2023-02-28T00:37:08;96424.59;;;5.99;100.00
41222;BME280;26952;42.884;23.918;2023-02-28T00:39:35;96423.31;;;6.14;100.00
41222;BME280;26952;42.884;23.918;2023-02-28T00:42:01;96409.78;;;6.18;100.00
41222;BME280;26952;42.884;23.918;2023-02-28T00:44:27;96414.63;;;6.23;100.00
41222;BME280;26952;42.884;23.918;2023-02-28T00:46:53;96406.38;;;6.27;100.00
41222;BME280;26952;42.884;23.918;2023-02-28T00:49:20;96426.59;;;6.36;100.00
41222;BME280;26952;42.884;23.918;2023-02-28T00:51:46;96419.69;;;6.35;100.00
41222;BME280;26952;42.884;23.918;2023-02-28T00:54:11;96414.59;;;6.43;100.00
41222;BME280;26952;42.884;23.918;2023-02-28T00:56:37;96423.72;;;6.49;100.00
41222;BME280;26952;42.884;23.918;2023-02-28T00:59:02;96403.63;;;6.38;100.00
41222;BME280;26952;42.884;23.918;2023-02-28T01:01:27;96432.28;;;6.41;100.00
41222;BME280;26952;42.884;23.918;2023-02-28T01:03:53;96421.72;;;6.32;100.00
41222;BME280;26952;42.884;23.918;2023-02-28T01:06:18;96424.78;;;6.37;100.00
41222;BME280;26952;42.884;23.918;2023-02-28T01:08:44;96405.13;;;6.31;100.00
41222;BME280;26952;42.884;23.918;2023-02-28T01:11:10;96409.84;;;6.37;100.00
41222;BME280;26952;42.884;23.918;2023-02-28T01:13:36;96404.56;;;6.37;100.00
41222;BME280;26952;42.884;23.918;2023-02-28T01:16:02;96394.59;;;6.31;100.00
41222;BME280;26952;42.884;23.918;2023-02-28T01:18:27;96407.06;;;6.39;100.00
41222;BME280;26952;42.884;23.918;2023-02-28T01:20:53;96416.63;;;6.40;100.00
41222;BME280;26952;42.884;23.918;2023-02-28T01:23:20;96412.31;;;6.39;100.00
41222;BME280;26952;42.884;23.918;2023-02-28T01:25:48;96417.44;;;6.40;100.00
41222;BME280;26952;42.884;23.918;2023-02-28T01:28:14;96420.06;;;6.31;100.00
41222;BME280;26952;42.884;23.918;2023-02-28T01:30:39;96425.28;;;6.21;100.00
41222;BME280;26952;42.884;23.918;2023-02-28T01:33:04;96412.53;;;6.17;100.00
41222;BME280;26952;42.884;23.918;2023-02-28T01:35:35;96413.38;;;6.17;100.00
41222;BME280;26952;42.884;23.918;2023-02-28T01:38:01;96416.69;;;6.19;100.00
41222;BME280;26952;42.884;23.918;2023-02-28T01:40:27;96421.69;;;6.22;100.00
41222;BME280;26952;42.884;23.918;2023-02-28T01:42:52;96405.66;;;6.25;100.00
41222;BME280;26952;42.884;23.918;2023-02-28T01:45:31;96400.00;;;6.30;100.00
41222;BME280;26952;42.884;23.918;2023-02-28T01:48:05;96408.63;;;6.41;100.00
41222;BME280;26952;42.884;23.918;2023-02-28T01:50:36;96406.69;;;6.43;100.00
41222;BME280;26952;42.884;23.918;2023-02-28T01:53:07;96407.13;;;6.48;100.00
41222;BME280;26952;42.884;23.918;2023-02-28T01:55:33;96416.41;;;6.52;100.00
41222;BME280;26952;42.884;23.918;2023-02-28T01:58:01;96408.78;;;6.49;100.00
41222;BME280;26952;42.884;23.918;2023-02-28T02:00:28;96409.03;;;6.37;100.00
41222;BME280;26952;42.884;23.918;2023-02-28T02:03:00;96408.31;;;6.35;100.00
41222;BME280;26952;42.884;23.918;2023-02-28T02:05:28;96387.66;;;6.21;100.00
41222;BME280;26952;42.884;23.918;2023-02-28T02:07:58;96409.66;;;6.29;100.00
41222;BME280;26952;42.884;23.918;2023-02-28T02:19:18;96422.81;;;6.29;100.00
41222;BME280;26952;42.884;23.918;2023-02-28T02:27:38;96427.50;;;6.26;100.00
41222;BME280;26952;42.884;23.918;2023-02-28T02:35:54;96445.56;;;6.40;100.00
41222;BME280;26952;42.884;23.918;2023-02-28T02:43:33;96434.19;;;6.39;100.00
41222;BME280;26952;42.884;23.918;2023-02-28T02:46:07;96442.25;;;6.47;100.00
41222;BME280;26952;42.884;23.918;2023-02-28T02:48:36;96442.78;;;6.41;100.00
41222;BME280;26952;42.884;23.918;2023-02-28T02:51:07;96430.56;;;6.31;100.00
41222;BME280;26952;42.884;23.918;2023-02-28T02:53:42;96443.84;;;6.29;100.00
41222;BME280;26952;42.884;23.918;2023-02-28T02:56:11;96448.22;;;6.19;100.00
41222;BME280;26952;42.884;23.918;2023-02-28T02:58:40;96444.28;;;6.04;100.00
41222;BME280;26952;42.884;23.918;2023-02-28T03:01:12;96467.34;;;6.01;100.00
41222;BME280;26952;42.884;23.918;2023-02-28T03:03:40;96463.63;;;6.03;100.00
41222;BME280;26952;42.884;23.918;2023-02-28T03:06:05;96478.56;;;6.03;100.00
41222;BME280;26952;42.884;23.918;2023-02-28T03:08:35;96475.56;;;6.07;100.00
41222;BME280;26952;42.884;23.918;2023-02-28T03:11:04;96467.28;;;6.12;100.00
41222;BME280;26952;42.884;23.918;2023-02-28T03:14:12;96474.63;;;6.18;100.00
41222;BME280;26952;42.884;23.918;2023-02-28T03:26:58;96459.16;;;6.24;100.00
41222;BME280;26952;42.884;23.918;2023-02-28T03:29:35;96472.09;;;6.27;100.00
41222;BME280;26952;42.884;23.918;2023-02-28T03:32:14;96470.13;;;6.29;100.00
41222;BME280;26952;42.884;23.918;2023-02-28T03:34:53;96463.53;;;6.35;100.00
41222;BME280;26952;42.884;23.918;2023-02-28T03:37:23;96457.69;;;6.31;100.00
41222;BME280;26952;42.884;23.918;2023-02-28T03:39:56;96453.00;;;6.35;100.00
41222;BME280;26952;42.884;23.918;2023-02-28T03:42:27;96467.00;;;6.35;100.00
41222;BME280;26952;42.884;23.918;2023-02-28T03:44:59;96474.78;;;6.46;100.00
41222;BME280;26952;42.884;23.918;2023-02-28T03:47:32;96474.78;;;6.46;100.00
41222;BME280;26952;42.884;23.918;2023-02-28T03:50:08;96463.88;;;6.51;100.00
41222;BME280;26952;42.884;23.918;2023-02-28T03:52:39;96476.78;;;6.63;100.00
41222;BME280;26952;42.884;23.918;2023-02-28T03:55:10;96486.47;;;6.63;100.00
41222;BME280;26952;42.884;23.918;2023-02-28T04:00:16;96481.31;;;6.61;100.00
41222;BME280;26952;42.884;23.918;2023-02-28T04:02:44;96491.34;;;6.67;100.00
41222;BME280;26952;42.884;23.918;2023-02-28T04:05:09;96491.97;;;6.60;100.00
41222;BME280;26952;42.884;23.918;2023-02-28T04:07:35;96506.41;;;6.65;100.00
41222;BME280;26952;42.884;23.918;2023-02-28T04:10:00;96501.69;;;6.59;100.00
41222;BME280;26952;42.884;23.918;2023-02-28T04:12:26;96502.63;;;6.58;100.00
41222;BME280;26952;42.884;23.918;2023-02-28T04:14:51;96512.09;;;6.61;100.00
41222;BME280;26952;42.884;23.918;2023-02-28T04:17:17;96514.31;;;6.65;100.00
41222;BME280;26952;42.884;23.918;2023-02-28T04:19:43;96487.66;;;6.49;100.00
41222;BME280;26952;42.884;23.918;2023-02-28T04:22:09;96512.63;;;6.55;100.00
41222;BME280;26952;42.884;23.918;2023-02-28T04:24:35;96490.28;;;6.49;100.00
41222;BME280;26952;42.884;23.918;2023-02-28T04:27:01;96509.31;;;6.62;100.00
41222;BME280;26952;42.884;23.918;2023-02-28T04:29:28;96515.00;;;6.67;100.00
41222;BME280;26952;42.884;23.918;2023-02-28T04:31:55;96510.03;;;6.64;100.00
41222;BME280;26952;42.884;23.918;2023-02-28T04:34:25;96517.34;;;6.61;100.00
41222;BME280;26952;42.884;23.918;2023-02-28T04:36:51;96502.91;;;6.55;100.00
41222;BME280;26952;42.884;23.918;2023-02-28T04:39:20;96514.28;;;6.56;100.00
41222;BME280;26952;42.884;23.918;2023-02-28T04:41:45;96517.44;;;6.50;100.00
41222;BME280;26952;42.884;23.918;2023-02-28T04:44:11;96507.28;;;6.45;100.00
41222;BME280;26952;42.884;23.918;2023-02-28T04:46:37;96496.72;;;6.36;100.00
41222;BME280;26952;42.884;23.918;2023-02-28T04:49:03;96502.88;;;6.46;100.00
41222;BME280;26952;42.884;23.918;2023-02-28T04:51:28;96512.94;;;6.41;100.00
41222;BME280;26952;42.884;23.918;2023-02-28T04:53:54;96500.59;;;6.32;100.00
41222;BME280;26952;42.884;23.918;2023-02-28T04:56:20;96510.91;;;6.44;100.00
41222;BME280;26952;42.884;23.918;2023-02-28T04:58:46;96514.50;;;6.43;100.00
41222;BME280;26952;42.884;23.918;2023-02-28T05:03:40;96520.38;;;6.56;100.00
41222;BME280;26952;42.884;23.918;2023-02-28T05:06:07;96515.41;;;6.63;100.00
41222;BME280;26952;42.884;23.918;2023-02-28T05:08:33;96517.47;;;6.59;100.00
41222;BME280;26952;42.884;23.918;2023-02-28T05:10:58;96519.94;;;6.51;100.00
41222;BME280;26952;42.884;23.918;2023-02-28T05:13:26;96522.69;;;6.50;100.00
41222;BME280;26952;42.884;23.918;2023-02-28T05:15:51;96533.72;;;6.44;100.00
41222;BME280;26952;42.884;23.918;2023-02-28T05:18:17;96538.16;;;6.23;100.00
41222;BME280;26952;42.884;23.918;2023-02-28T05:20:42;96538.22;;;6.12;100.00
41222;BME280;26952;42.884;23.918;2023-02-28T05:23:10;96524.13;;;5.92;100.00
41222;BME280;26952;42.884;23.918;2023-02-28T05:25:36;96545.41;;;5.89;100.00
41222;BME280;26952;42.884;23.918;2023-02-28T05:28:02;96537.97;;;5.94;100.00
41222;BME280;26952;42.884;23.918;2023-02-28T05:30:27;96521.97;;;5.97;100.00
41222;BME280;26952;42.884;23.918;2023-02-28T05:32:52;96531.00;;;6.04;100.00
41222;BME280;26952;42.884;23.918;2023-02-28T05:35:18;96534.97;;;5.99;100.00
41222;BME280;26952;42.884;23.918;2023-02-28T05:37:43;96528.25;;;5.85;100.00
41222;BME280;26952;42.884;23.918;2023-02-28T05:40:09;96548.28;;;6.07;100.00
41222;BME280;26952;42.884;23.918;2023-02-28T05:42:36;96547.28;;;6.19;100.00
41222;BME280;26952;42.884;23.918;2023-02-28T05:45:01;96549.38;;;6.25;100.00
41222;BME280;26952;42.884;23.918;2023-02-28T05:47:26;96553.22;;;6.41;100.00
41222;BME280;26952;42.884;23.918;2023-02-28T05:49:52;96559.44;;;6.40;100.00
41222;BME280;26952;42.884;23.918;2023-02-28T05:52:17;96563.63;;;6.43;100.00
41222;BME280;26952;42.884;23.918;2023-02-28T05:54:43;96548.91;;;6.40;100.00
41222;BME280;26952;42.884;23.918;2023-02-28T05:57:08;96560.31;;;6.50;100.00
41222;BME280;26952;42.884;23.918;2023-02-28T05:59:33;96556.34;;;6.56;100.00
41222;BME280;26952;42.884;23.918;2023-02-28T06:01:59;96538.47;;;6.29;100.00
41222;BME280;26952;42.884;23.918;2023-02-28T06:04:24;96559.00;;;6.35;100.00
41222;BME280;26952;42.884;23.918;2023-02-28T06:06:50;96527.84;;;6.10;100.00
41222;BME280;26952;42.884;23.918;2023-02-28T06:09:17;96555.69;;;6.13;100.00
41222;BME280;26952;42.884;23.918;2023-02-28T06:11:43;96560.97;;;6.02;100.00
41222;BME280;26952;42.884;23.918;2023-02-28T06:14:15;96554.59;;;5.95;100.00
41222;BME280;26952;42.884;23.918;2023-02-28T06:16:41;96543.50;;;5.91;100.00
41222;BME280;26952;42.884;23.918;2023-02-28T06:19:06;96558.75;;;5.97;100.00
41222;BME280;26952;42.884;23.918;2023-02-28T06:21:32;96564.25;;;5.94;100.00
41222;BME280;26952;42.884;23.918;2023-02-28T06:23:57;96572.59;;;5.99;100.00
41222;BME280;26952;42.884;23.918;2023-02-28T06:26:23;96567.41;;;5.88;100.00
41222;BME280;26952;42.884;23.918;2023-02-28T06:28:49;96592.81;;;5.88;100.00
41222;BME280;26952;42.884;23.918;2023-02-28T06:31:16;96591.03;;;5.88;100.00
41222;BME280;26952;42.884;23.918;2023-02-28T06:33:43;96594.94;;;5.94;100.00
41222;BME280;26952;42.884;23.918;2023-02-28T06:36:09;96562.28;;;5.87;100.00
41222;BME280;26952;42.884;23.918;2023-02-28T06:38:35;96557.66;;;6.00;100.00
41222;BME280;26952;42.884;23.918;2023-02-28T06:41:02;96594.41;;;6.31;100.00
41222;BME280;26952;42.884;23.918;2023-02-28T06:43:31;96579.06;;;6.36;100.00
41222;BME280;26952;42.884;23.918;2023-02-28T06:45:59;96587.72;;;6.48;100.00
41222;BME280;26952;42.884;23.918;2023-02-28T06:48:26;96596.78;;;6.55;100.00
41222;BME280;26952;42.884;23.918;2023-02-28T06:50:52;96587.66;;;6.59;100.00
41222;BME280;26952;42.884;23.918;2023-02-28T06:53:17;96589.88;;;6.63;100.00
41222;BME280;26952;42.884;23.918;2023-02-28T06:55:42;96566.59;;;6.59;100.00
41222;BME280;26952;42.884;23.918;2023-02-28T06:58:08;96592.81;;;6.90;100.00
41222;BME280;26952;42.884;23.918;2023-02-28T07:00:44;96594.47;;;6.91;100.00
41222;BME280;26952;42.884;23.918;2023-02-28T07:03:11;96589.03;;;6.83;100.00
41222;BME280;26952;42.884;23.918;2023-02-28T07:05:38;96594.47;;;6.91;100.00
41222;BME280;26952;42.884;23.918;2023-02-28T07:08:05;96580.59;;;6.89;100.00
41222;BME280;26952;42.884;23.918;2023-02-28T07:10:31;96593.63;;;6.91;100.00
41222;BME280;26952;42.884;23.918;2023-02-28T07:12:58;96593.31;;;6.84;100.00
41222;BME280;26952;42.884;23.918;2023-02-28T07:15:23;96593.66;;;6.70;100.00
41222;BME280;26952;42.884;23.918;2023-02-28T07:17:48;96582.97;;;6.62;100.00
41222;BME280;26952;42.884;23.918;2023-02-28T07:20:14;96588.66;;;6.47;100.00
41222;BME280;26952;42.884;23.918;2023-02-28T07:22:39;96583.41;;;6.47;100.00
41222;BME280;26952;42.884;23.918;2023-02-28T07:25:05;96576.09;;;6.50;100.00
41222;BME280;26952;42.884;23.918;2023-02-28T07:27:31;96549.78;;;6.20;100.00
41222;BME280;26952;42.884;23.918;2023-02-28T07:29:56;96579.66;;;6.40;100.00
41222;BME280;26952;42.884;23.918;2023-02-28T07:32:22;96583.75;;;6.33;100.00
41222;BME280;26952;42.884;23.918;2023-02-28T07:34:47;96572.84;;;6.37;100.00
41222;BME280;26952;42.884;23.918;2023-02-28T07:37:14;96588.66;;;6.47;100.00
41222;BME280;26952;42.884;23.918;2023-02-28T07:39:40;96581.13;;;6.33;100.00
41222;BME280;26952;42.884;23.918;2023-02-28T07:42:08;96572.22;;;6.45;100.00
41222;BME280;26952;42.884;23.918;2023-02-28T07:44:37;96585.94;;;6.48;100.00
41222;BME280;26952;42.884;23.918;2023-02-28T07:47:07;96580.47;;;6.40;100.00
41222;BME280;26952;42.884;23.918;2023-02-28T07:49:33;96590.34;;;6.48;100.00
41222;BME280;26952;42.884;23.918;2023-02-28T07:51:58;96584.00;;;6.50;100.00
41222;BME280;26952;42.884;23.918;2023-02-28T07:54:24;96592.06;;;6.58;100.00
41222;BME280;26952;42.884;23.918;2023-02-28T07:56:49;96575.34;;;6.59;100.00
41222;BME280;26952;42.884;23.918;2023-02-28T07:59:15;96590.09;;;6.51;100.00
41222;BME280;26952;42.884;23.918;2023-02-28T08:01:40;96584.88;;;6.60;100.00
41222;BME280;26952;42.884;23.918;2023-02-28T08:04:05;96596.56;;;6.67;100.00
41222;BME280;26952;42.884;23.918;2023-02-28T08:06:31;96590.50;;;6.76;100.00
41222;BME280;26952;42.884;23.918;2023-02-28T08:08:56;96593.88;;;6.88;100.00
41222;BME280;26952;42.884;23.918;2023-02-28T08:11:22;96590.06;;;7.01;100.00
41222;BME280;26952;42.884;23.918;2023-02-28T08:13:47;96602.88;;;7.25;100.00
41222;BME280;26952;42.884;23.918;2023-02-28T08:16:13;96591.59;;;7.44;100.00
41222;BME280;26952;42.884;23.918;2023-02-28T08:18:47;96589.81;;;7.63;100.00
41222;BME280;26952;42.884;23.918;2023-02-28T08:21:12;96577.19;;;7.67;100.00
41222;BME280;26952;42.884;23.918;2023-02-28T08:23:38;96588.56;;;7.77;100.00
41222;BME280;26952;42.884;23.918;2023-02-28T08:26:03;96585.00;;;7.78;100.00
41222;BME280;26952;42.884;23.918;2023-02-28T08:28:29;96589.84;;;7.92;100.00
41222;BME280;26952;42.884;23.918;2023-02-28T08:30:55;96585.28;;;7.75;100.00
41222;BME280;26952;42.884;23.918;2023-02-28T08:33:20;96590.53;;;7.75;100.00
41222;BME280;26952;42.884;23.918;2023-02-28T08:35:46;96593.84;;;7.77;100.00
41222;BME280;26952;42.884;23.918;2023-02-28T08:38:11;96579.38;;;7.43;100.00
41222;BME280;26952;42.884;23.918;2023-02-28T08:40:36;96600.47;;;7.52;100.00
41222;BME280;26952;42.884;23.918;2023-02-28T08:43:02;96593.78;;;7.39;100.00
41222;BME280;26952;42.884;23.918;2023-02-28T08:45:27;96593.66;;;7.50;100.00
41222;BME280;26952;42.884;23.918;2023-02-28T08:47:54;96590.63;;;7.54;100.00
41222;BME280;26952;42.884;23.918;2023-02-28T08:50:21;96590.22;;;7.59;100.00
41222;BME280;26952;42.884;23.918;2023-02-28T08:52:47;96596.47;;;7.67;100.00
41222;BME280;26952;42.884;23.918;2023-02-28T08:55:13;96592.34;;;7.74;100.00
41222;BME280;26952;42.884;23.918;2023-02-28T08:57:38;96596.91;;;8.01;100.00
41222;BME280;26952;42.884;23.918;2023-02-28T09:00:04;96600.53;;;8.00;100.00
41222;BME280;26952;42.884;23.918;2023-02-28T09:02:30;96606.06;;;8.16;100.00
41222;BME280;26952;42.884;23.918;2023-02-28T09:04:57;96608.88;;;8.33;100.00
41222;BME280;26952;42.884;23.918;2023-02-28T09:07:23;96613.75;;;8.48;100.00
41222;BME280;26952;42.884;23.918;2023-02-28T09:09:48;96618.03;;;8.49;100.00
41222;BME280;26952;42.884;23.918;2023-02-28T09:12:27;96620.81;;;8.47;100.00
41222;BME280;26952;42.884;23.918;2023-02-28T09:14:56;96604.16;;;8.27;100.00
41222;BME280;26952;42.884;23.918;2023-02-28T09:17:22;96607.63;;;8.47;100.00
41222;BME280;26952;42.884;23.918;2023-02-28T09:19:48;96600.81;;;8.54;100.00
41222;BME280;26952;42.884;23.918;2023-02-28T09:22:14;96596.66;;;8.42;100.00
41222;BME280;26952;42.884;23.918;2023-02-28T09:24:39;96608.44;;;8.57;100.00
41222;BME280;26952;42.884;23.918;2023-02-28T09:27:05;96604.69;;;8.50;100.00
41222;BME280;26952;42.884;23.918;2023-02-28T09:29:32;96588.44;;;8.45;100.00
41222;BME280;26952;42.884;23.918;2023-02-28T09:31:58;96602.19;;;8.49;100.00
41222;BME280;26952;42.884;23.918;2023-02-28T09:34:25;96604.44;;;8.15;100.00
41222;BME280;26952;42.884;23.918;2023-02-28T09:36:50;96595.97;;;7.83;100.00
41222;BME280;26952;42.884;23.918;2023-02-28T09:39:21;96598.84;;;7.80;100.00
41222;BME280;26952;42.884;23.918;2023-02-28T09:41:50;96604.69;;;7.93;100.00
41222;BME280;26952;42.884;23.918;2023-02-28T09:44:33;96607.19;;;7.94;100.00
41222;BME280;26952;42.884;23.918;2023-02-28T09:47:10;96610.50;;;7.68;100.00
41222;BME280;26952;42.884;23.918;2023-02-28T09:49:44;96591.72;;;7.42;100.00
41222;BME280;26952;42.884;23.918;2023-02-28T09:52:29;96596.31;;;7.50;100.00
41222;BME280;26952;42.884;23.918;2023-02-28T09:57:50;96601.25;;;7.34;100.00
41222;BME280;26952;42.884;23.918;2023-02-28T10:05:41;96605.16;;;6.99;100.00
41222;BME280;26952;42.884;23.918;2023-02-28T10:08:18;96594.78;;;7.07;100.00
41222;BME280;26952;42.884;23.918;2023-02-28T10:10:57;96592.59;;;6.82;100.00
41222;BME280;26952;42.884;23.918;2023-02-28T10:13:35;96606.03;;;6.79;100.00
41222;BME280;26952;42.884;23.918;2023-02-28T10:16:06;96606.78;;;6.91;100.00
41222;BME280;26952;42.884;23.918;2023-02-28T10:18:54;96606.13;;;6.98;100.00
41222;BME280;26952;42.884;23.918;2023-02-28T10:21:28;96602.19;;;6.83;100.00
41222;BME280;26952;42.884;23.918;2023-02-28T10:24:03;96594.16;;;6.85;100.00
41222;BME280;26952;42.884;23.918;2023-02-28T10:26:32;96590.47;;;6.67;100.00
41222;BME280;26952;42.884;23.918;2023-02-28T10:28:57;96595.72;;;6.67;100.00
41222;BME280;26952;42.884;23.918;2023-02-28T10:31:23;96567.59;;;6.37;100.00
41222;BME280;26952;42.884;23.918;2023-02-28T10:33:48;96593.81;;;6.48;100.00
41222;BME280;26952;42.884;23.918;2023-02-28T10:36:17;96580.59;;;6.59;100.00
41222;BME280;26952;42.884;23.918;2023-02-28T10:38:45;96574.56;;;6.48;100.00
41222;BME280;26952;42.884;23.918;2023-02-28T10:41:27;96590.31;;;6.38;100.00
41222;BME280;26952;42.884;23.918;2023-02-28T10:44:17;96551.44;;;6.21;100.00
41222;BME280;26952;42.884;23.918;2023-02-28T10:46:43;96587.53;;;6.40;100.00
41222;BME280;26952;42.884;23.918;2023-02-28T10:49:26;96579.84;;;6.48;100.00
41222;BME280;26952;42.884;23.918;2023-02-28T10:51:59;96578.47;;;6.53;100.00
41222;BME280;26952;42.884;23.918;2023-02-28T10:54:34;96587.59;;;6.49;100.00
41222;BME280;26952;42.884;23.918;2023-02-28T10:57:23;96570.91;;;6.39;100.00
41222;BME280;26952;42.884;23.918;2023-02-28T11:00:16;96579.25;;;6.44;100.00
41222;BME280;26952;42.884;23.918;2023-02-28T11:02:42;96569.69;;;6.64;100.00
41222;BME280;26952;42.884;23.918;2023-02-28T11:05:31;96581.47;;;6.69;100.00
41222;BME280;26952;42.884;23.918;2023-02-28T11:08:05;96574.50;;;6.59;100.00
41222;BME280;26952;42.884;23.918;2023-02-28T11:10:31;96544.56;;;6.30;100.00
41222;BME280;26952;42.884;23.918;2023-02-28T11:13:00;96545.78;;;6.46;100.00
41222;BME280;26952;42.884;23.918;2023-02-28T11:15:31;96553.19;;;6.32;100.00
41222;BME280;26952;42.884;23.918;2023-02-28T11:20:25;96568.47;;;6.47;100.00
41222;BME280;26952;42.884;23.918;2023-02-28T11:22:51;96562.38;;;6.47;100.00
41222;BME280;26952;42.884;23.918;2023-02-28T11:25:38;96566.88;;;6.56;100.00
41222;BME280;26952;42.884;23.918;2023-02-28T11:28:06;96564.38;;;6.54;100.00
41222;BME280;26952;42.884;23.918;2023-02-28T11:33:49;96570.78;;;6.41;100.00
41222;BME280;26952;42.884;23.918;2023-02-28T11:36:25;96567.25;;;6.31;100.00
41222;BME280;26952;42.884;23.918;2023-02-28T11:38:53;96554.25;;;6.29;100.00
41222;BME280;26952;42.884;23.918;2023-02-28T11:49:02;96562.22;;;6.18;100.00
41222;BME280;26952;42.884;23.918;2023-02-28T11:51:42;96564.75;;;6.29;100.00
41222;BME280;26952;42.884;23.918;2023-02-28T11:56:44;96553.81;;;6.24;100.00
41222;BME280;26952;42.884;23.918;2023-02-28T11:59:28;96559.38;;;6.51;100.00
41222;BME280;26952;42.884;23.918;2023-02-28T12:02:13;96575.84;;;6.53;100.00
41222;BME280;26952;42.884;23.918;2023-02-28T12:07:50;96557.00;;;6.28;100.00
41222;BME280;26952;42.884;23.918;2023-02-28T12:20:54;96561.94;;;6.21;100.00
41222;BME280;26952;42.884;23.918;2023-02-28T12:26:36;96575.81;;;6.23;100.00
41222;BME280;26952;42.884;23.918;2023-02-28T12:31:51;96594.78;;;6.06;100.00
41222;BME280;26952;42.884;23.918;2023-02-28T12:34:37;96578.03;;;6.07;100.00
41222;BME280;26952;42.884;23.918;2023-02-28T12:37:08;96586.31;;;6.03;100.00
41222;BME280;26952;42.884;23.918;2023-02-28T12:39:45;96579.31;;;5.92;100.00
41222;BME280;26952;42.884;23.918;2023-02-28T12:42:23;96563.78;;;5.89;100.00
41222;BME280;26952;42.884;23.918;2023-02-28T12:44:56;96559.28;;;5.80;100.00
41222;BME280;26952;42.884;23.918;2023-02-28T12:47:23;96574.31;;;5.78;100.00
41222;BME280;26952;42.884;23.918;2023-02-28T12:50:07;96565.97;;;5.84;100.00
41222;BME280;26952;42.884;23.918;2023-02-28T13:00:47;96580.03;;;5.94;100.00
41222;BME280;26952;42.884;23.918;2023-02-28T13:06:05;96550.22;;;5.73;100.00
41222;BME280;26952;42.884;23.918;2023-02-28T13:11:06;96582.06;;;5.80;100.00
41222;BME280;26952;42.884;23.918;2023-02-28T13:13:32;96559.63;;;5.76;100.00
41222;BME280;26952;42.884;23.918;2023-02-28T13:18:31;96568.34;;;5.87;100.00
41222;BME280;26952;42.884;23.918;2023-02-28T13:20:57;96565.91;;;5.95;100.00
41222;BME280;26952;42.884;23.918;2023-02-28T13:26:08;96565.63;;;6.09;100.00
41222;BME280;26952;42.884;23.918;2023-02-28T13:31:20;96550.91;;;6.07;100.00
41222;BME280;26952;42.884;23.918;2023-02-28T13:38:49;96564.00;;;5.97;100.00
41222;BME280;26952;42.884;23.918;2023-02-28T13:44:04;96558.88;;;5.96;100.00
41222;BME280;26952;42.884;23.918;2023-02-28T13:46:32;96542.97;;;5.97;100.00
41222;BME280;26952;42.884;23.918;2023-02-28T13:57:58;96559.78;;;6.26;100.00
41222;BME280;26952;42.884;23.918;2023-02-28T14:05:43;96550.03;;;6.17;100.00
41222;BME280;26952;42.884;23.918;2023-02-28T14:08:19;96542.56;;;6.13;100.00
41222;BME280;26952;42.884;23.918;2023-02-28T14:11:08;96542.28;;;6.16;100.00
41222;BME280;26952;42.884;23.918;2023-02-28T14:16:20;96566.94;;;6.24;100.00
41222;BME280;26952;42.884;23.918;2023-02-28T14:19:02;96551.69;;;6.18;100.00
41222;BME280;26952;42.884;23.918;2023-02-28T14:21:34;96562.34;;;6.17;100.00
41222;BME280;26952;42.884;23.918;2023-02-28T14:29:38;96538.28;;;5.69;100.00
41222;BME280;26952;42.884;23.918;2023-02-28T14:32:32;96561.84;;;5.71;100.00
41222;BME280;26952;42.884;23.918;2023-02-28T14:37:42;96567.56;;;5.64;100.00
41222;BME280;26952;42.884;23.918;2023-02-28T14:40:35;96574.38;;;5.67;100.00
41222;BME280;26952;42.884;23.918;2023-02-28T14:43:03;96569.59;;;5.61;100.00
41222;BME280;26952;42.884;23.918;2023-02-28T14:45:31;96566.75;;;5.64;100.00
41222;BME280;26952;42.884;23.918;2023-02-28T14:47:58;96563.75;;;5.68;100.00
41222;BME280;26952;42.884;23.918;2023-02-28T14:50:30;96572.91;;;5.74;100.00
41222;BME280;26952;42.884;23.918;2023-02-28T14:52:57;96577.44;;;5.83;100.00
41222;BME280;26952;42.884;23.918;2023-02-28T14:55:30;96569.59;;;5.72;100.00
41222;BME280;26952;42.884;23.918;2023-02-28T14:57:59;96571.50;;;5.70;100.00
41222;BME280;26952;42.884;23.918;2023-02-28T15:00:30;96566.97;;;5.72;100.00
41222;BME280;26952;42.884;23.918;2023-02-28T15:02:57;96569.91;;;5.79;100.00
41222;BME280;26952;42.884;23.918;2023-02-28T15:08:15;96565.41;;;5.69;100.00
41222;BME280;26952;42.884;23.918;2023-02-28T15:10:49;96573.75;;;5.75;100.00
41222;BME280;26952;42.884;23.918;2023-02-28T15:13:16;96574.38;;;5.67;100.00
41222;BME280;26952;42.884;23.918;2023-02-28T15:20:47;96568.41;;;5.65;100.00
41222;BME280;26952;42.884;23.918;2023-02-28T15:23:14;96552.22;;;5.49;100.00
41222;BME280;26952;42.884;23.918;2023-02-28T15:25:41;96539.38;;;5.35;100.00